createdAt,value
2022-12-08T00:01:19.873Z,101021.53
2022-12-08T00:03:47.482Z,101021.81
2022-12-08T00:06:52.758Z,101020.56
2022-12-08T00:09:39.651Z,101016.47
2022-12-08T00:12:16.549Z,101013.91
2022-12-08T00:14:45.958Z,101017.34
2022-12-08T00:17:15.341Z,101011.28
2022-12-08T00:19:43.443Z,101012.22
2022-12-08T00:22:12.293Z,101012.22
2022-12-08T00:24:40.492Z,101007.88
2022-12-08T00:27:09.121Z,101007.84
2022-12-08T00:29:36.218Z,101010.44
2022-12-08T00:32:03.831Z,101001.63
2022-12-08T00:34:31.880Z,100994.53
2022-12-08T00:36:59.898Z,100998.19
2022-12-08T00:39:26.992Z,101000.91
2022-12-08T00:42:12.229Z,100994.00
2022-12-08T00:44:41.084Z,101002.75
2022-12-08T00:47:08.168Z,101001.28
2022-12-08T00:49:35.386Z,100990.78
2022-12-08T00:52:02.876Z,100994.91
2022-12-08T00:54:30.024Z,100993.41
2022-12-08T00:56:57.101Z,100996.81
2022-12-08T00:59:24.332Z,100997.53
2022-12-08T01:01:51.547Z,100996.81
2022-12-08T01:04:19.693Z,101006.16
2022-12-08T01:06:47.650Z,101018.38
2022-12-08T01:09:16.155Z,101009.56
2022-12-08T01:11:44.576Z,101009.56
2022-12-08T01:14:12.995Z,101014.00
2022-12-08T01:16:41.521Z,101016.53
2022-12-08T01:19:14.078Z,101011.16
2022-12-08T01:21:42.243Z,101018.50
2022-12-08T01:24:19.293Z,101011.38
2022-12-08T01:26:47.607Z,101021.13
2022-12-08T01:29:15.026Z,101017.53
2022-12-08T01:31:42.726Z,101023.75
2022-12-08T01:34:11.113Z,101030.69
2022-12-08T01:36:39.239Z,101029.84
2022-12-08T01:39:14.295Z,101021.34
2022-12-08T01:41:41.740Z,101016.09
2022-12-08T01:44:08.847Z,101016.16
2022-12-08T01:46:38.076Z,101009.78
2022-12-08T01:49:06.844Z,101006.34
2022-12-08T01:51:42.778Z,101011.81
2022-12-08T01:54:12.302Z,101009.31
2022-12-08T01:56:47.274Z,100999.13
2022-12-08T01:59:14.682Z,101010.38
2022-12-08T02:01:41.824Z,101013.97
2022-12-08T02:04:10.265Z,101008.72
2022-12-08T02:06:43.861Z,101001.09
2022-12-08T02:09:11.847Z,100993.66
2022-12-08T02:11:38.942Z,100997.16
2022-12-08T02:14:08.280Z,100992.09
2022-12-08T02:16:48.903Z,100999.00
2022-12-08T02:19:34.473Z,100996.34
2022-12-08T02:22:10.386Z,100991.06
2022-12-08T02:24:44.426Z,100987.47
2022-12-08T02:27:40.309Z,100985.63
2022-12-08T02:30:38.416Z,100979.53
2022-12-08T02:33:36.402Z,100981.09
2022-12-08T02:36:23.474Z,100982.06
2022-12-08T02:39:08.836Z,100982.13
2022-12-08T02:42:12.709Z,100981.50
2022-12-08T02:44:47.197Z,100979.78
2022-12-08T02:47:18.659Z,100979.72
2022-12-08T02:49:46.539Z,100980.44
2022-12-08T02:52:13.565Z,100974.44
2022-12-08T02:54:45.128Z,100973.50
2022-12-08T02:57:43.167Z,100966.59
2022-12-08T03:00:19.995Z,100957.81
2022-12-08T03:03:11.266Z,100957.78
2022-12-08T03:06:06.606Z,100955.03
2022-12-08T03:09:14.182Z,100964.69
2022-12-08T03:12:25.263Z,100957.53
2022-12-08T03:14:55.236Z,100943.88
2022-12-08T03:17:26.243Z,100946.09
2022-12-08T03:19:54.509Z,100934.72
2022-12-08T03:22:25.937Z,100941.81
2022-12-08T03:24:54.057Z,100932.47
2022-12-08T03:27:24.828Z,100928.06
2022-12-08T03:29:54.650Z,100925.56
2022-12-08T03:32:54.111Z,100920.31
2022-12-08T03:35:25.906Z,100918.44
2022-12-08T03:38:02.851Z,100920.56
2022-12-08T03:40:30.016Z,100919.69
2022-12-08T03:42:57.145Z,100916.16
2022-12-08T03:45:24.315Z,100913.50
2022-12-08T03:47:51.660Z,100917.72
2022-12-08T03:50:18.862Z,100921.25
2022-12-08T03:52:45.950Z,100916.09
2022-12-08T03:55:13.197Z,100912.41
2022-12-08T03:57:40.514Z,100906.09
2022-12-08T04:00:12.910Z,100911.34
2022-12-08T04:02:40.067Z,100922.00
2022-12-08T04:05:07.536Z,100925.19
2022-12-08T04:07:34.637Z,100910.69
2022-12-08T04:10:02.112Z,100914.72
2022-12-08T04:12:29.558Z,100913.25
2022-12-08T04:14:56.658Z,100924.69
2022-12-08T04:17:23.738Z,100909.72
2022-12-08T04:19:50.811Z,100897.47
2022-12-08T04:22:17.941Z,100904.50
2022-12-08T04:24:45.040Z,100905.38
2022-12-08T04:27:12.135Z,100901.03
2022-12-08T04:29:39.208Z,100912.41
2022-12-08T04:32:06.306Z,100913.09
2022-12-08T04:34:33.802Z,100911.44
2022-12-08T04:37:00.861Z,100917.38
2022-12-08T04:39:27.975Z,100906.78
2022-12-08T04:41:55.137Z,100919.13
2022-12-08T04:44:23.357Z,100910.28
2022-12-08T04:46:50.473Z,100905.75
2022-12-08T04:49:17.653Z,100914.47
2022-12-08T04:51:44.751Z,100910.34
2022-12-08T04:54:11.833Z,100908.53
2022-12-08T04:56:38.957Z,100909.66
2022-12-08T04:59:06.151Z,100905.13
2022-12-08T05:01:33.345Z,100905.91
2022-12-08T05:04:00.580Z,100903.91
2022-12-08T05:06:27.687Z,100900.91
2022-12-08T05:08:54.878Z,100901.16
2022-12-08T05:11:21.955Z,100900.13
2022-12-08T05:13:49.064Z,100894.91
2022-12-08T05:16:16.730Z,100894.06
2022-12-08T05:18:44.135Z,100896.63
2022-12-08T05:21:11.540Z,100896.81
2022-12-08T05:23:38.715Z,100893.25
2022-12-08T05:26:06.149Z,100892.47
2022-12-08T05:28:42.664Z,100889.72
2022-12-08T05:31:15.131Z,100890.44
2022-12-08T05:33:43.704Z,100885.41
2022-12-08T05:36:13.577Z,100896.69
2022-12-08T05:38:40.873Z,100889.47
2022-12-08T05:41:09.432Z,100886.84
2022-12-08T05:43:36.591Z,100887.41
2022-12-08T05:46:03.829Z,100881.47
2022-12-08T05:48:31.174Z,100896.34
2022-12-08T05:50:58.336Z,100895.41
2022-12-08T05:53:25.725Z,100880.56
2022-12-08T05:55:53.481Z,100885.56
2022-12-08T05:58:22.473Z,100884.78
2022-12-08T06:00:50.532Z,100880.44
2022-12-08T06:03:19.642Z,100876.88
2022-12-08T06:05:47.613Z,100876.09
2022-12-08T06:08:14.850Z,100877.13
2022-12-08T06:10:43.628Z,100879.97
2022-12-08T06:13:11.131Z,100875.19
2022-12-08T06:15:39.017Z,100887.53
2022-12-08T06:18:07.342Z,100890.16
2022-12-08T06:20:34.787Z,100888.22
2022-12-08T06:23:03.381Z,100888.28
2022-12-08T06:25:30.690Z,100894.56
2022-12-08T06:27:57.777Z,100894.38
2022-12-08T06:30:24.983Z,100898.09
2022-12-08T06:32:52.064Z,100904.34
2022-12-08T06:35:19.216Z,100910.25
2022-12-08T06:37:46.338Z,100907.41
2022-12-08T06:40:13.904Z,100912.53
2022-12-08T06:42:43.628Z,100917.13
2022-12-08T06:45:12.826Z,100913.69
2022-12-08T06:47:40.263Z,100910.81
2022-12-08T06:50:08.551Z,100910.69
2022-12-08T06:52:43.170Z,100915.09
2022-12-08T06:55:35.361Z,100914.03
2022-12-08T06:58:01.721Z,100908.78
2022-12-08T07:00:28.827Z,100911.03
2022-12-08T07:02:55.955Z,100903.09
2022-12-08T07:05:23.087Z,100910.28
2022-12-08T07:07:50.256Z,100910.97
2022-12-08T07:10:17.644Z,100904.75
2022-12-08T07:12:45.319Z,100911.78
2022-12-08T07:15:12.490Z,100915.09
2022-12-08T07:17:39.572Z,100911.47
2022-12-08T07:20:07.743Z,100907.84
2022-12-08T07:22:34.956Z,100910.25
2022-12-08T07:25:02.024Z,100898.94
2022-12-08T07:27:29.177Z,100911.50
2022-12-08T07:29:56.271Z,100901.53
2022-12-08T07:32:23.398Z,100898.59
2022-12-08T07:34:50.489Z,100889.81
2022-12-08T07:37:17.568Z,100889.38
2022-12-08T07:39:44.725Z,100895.69
2022-12-08T07:42:11.816Z,100916.00
2022-12-08T07:44:38.896Z,100913.81
2022-12-08T07:47:05.957Z,100915.31
2022-12-08T07:49:33.196Z,100915.28
2022-12-08T07:52:00.308Z,100916.53
2022-12-08T07:54:27.986Z,100911.50
2022-12-08T07:56:57.832Z,100916.66
2022-12-08T07:59:24.986Z,100921.41
2022-12-08T08:02:06.562Z,100922.53
2022-12-08T08:04:39.221Z,100924.22
2022-12-08T08:07:06.322Z,100920.09
2022-12-08T08:09:34.152Z,100906.19
2022-12-08T08:12:29.615Z,100908.72
2022-12-08T08:14:48.413Z,100912.34
2022-12-08T08:17:15.663Z,100906.56
2022-12-08T08:19:42.859Z,100904.50
2022-12-08T08:22:09.960Z,100912.53
2022-12-08T08:24:41.572Z,100906.31
2022-12-08T08:27:11.993Z,100912.44
2022-12-08T08:29:39.117Z,100907.13
2022-12-08T08:32:06.214Z,100909.97
2022-12-08T08:34:33.365Z,100911.34
2022-12-08T08:37:00.620Z,100904.78
2022-12-08T08:39:27.795Z,100907.19
2022-12-08T08:41:54.874Z,100918.00
2022-12-08T08:44:22.064Z,100915.41
2022-12-08T08:46:49.214Z,100914.84
2022-12-08T08:49:16.345Z,100915.88
2022-12-08T08:51:43.802Z,100917.03
2022-12-08T08:54:11.053Z,100928.63
2022-12-08T08:56:38.118Z,100935.34
2022-12-08T08:59:05.262Z,100927.59
2022-12-08T09:01:32.537Z,100939.47
2022-12-08T09:03:59.786Z,100938.53
2022-12-08T09:06:29.114Z,100942.09
2022-12-08T09:08:56.471Z,100947.59
2022-12-08T09:11:23.661Z,100944.28
2022-12-08T09:13:52.138Z,100950.00
2022-12-08T09:16:19.856Z,100937.81
2022-12-08T09:18:49.237Z,100934.03
2022-12-08T09:21:22.710Z,100933.34
2022-12-08T09:23:50.724Z,100940.63
2022-12-08T09:26:17.812Z,100939.31
2022-12-08T09:28:46.557Z,100941.88
2022-12-08T09:31:14.614Z,100928.94
2022-12-08T09:33:42.009Z,100941.53
2022-12-08T09:36:10.211Z,100935.56
2022-12-08T09:38:38.431Z,100931.88
2022-12-08T09:41:16.155Z,100934.16
2022-12-08T09:44:01.972Z,100930.25
2022-12-08T09:46:33.805Z,100938.16
2022-12-08T09:49:03.362Z,100942.09
2022-12-08T09:51:39.236Z,100927.63
2022-12-08T09:54:13.212Z,100924.13
2022-12-08T09:56:40.505Z,100925.19
2022-12-08T09:59:29.421Z,100920.13
2022-12-08T10:01:56.610Z,100922.34
2022-12-08T10:04:25.627Z,100907.47
2022-12-08T10:06:55.760Z,100898.72
2022-12-08T10:09:32.177Z,100892.72
2022-12-08T10:12:30.131Z,100891.97
2022-12-08T10:15:24.744Z,100894.69
2022-12-08T10:17:54.188Z,100899.41
2022-12-08T10:20:28.251Z,100893.94
2022-12-08T10:23:13.629Z,100891.56
2022-12-08T10:25:55.522Z,100896.09
2022-12-08T10:28:22.613Z,100884.81
2022-12-08T10:30:49.769Z,100893.16
2022-12-08T10:33:19.551Z,100889.56
2022-12-08T10:35:46.636Z,100892.41
2022-12-08T10:38:17.483Z,100894.19
2022-12-08T10:40:46.805Z,100890.66
2022-12-08T10:43:25.602Z,100876.44
2022-12-08T10:45:52.761Z,100884.84
2022-12-08T10:48:25.886Z,100883.44
2022-12-08T10:50:56.625Z,100877.63
2022-12-08T10:53:32.039Z,100874.72
2022-12-08T10:56:02.137Z,100872.91
2022-12-08T10:58:40.757Z,100878.78
2022-12-08T11:01:26.737Z,100869.25
2022-12-08T11:03:59.690Z,100869.75
2022-12-08T11:06:40.830Z,100861.81
2022-12-08T11:09:19.802Z,100847.78
2022-12-08T11:11:49.766Z,100850.34
2022-12-08T11:14:28.490Z,100843.06
2022-12-08T11:17:21.663Z,100837.47
2022-12-08T11:19:57.868Z,100843.91
2022-12-08T11:22:38.339Z,100836.41
2022-12-08T11:25:08.203Z,100836.63
2022-12-08T11:27:37.308Z,100830.34
2022-12-08T11:30:17.765Z,100828.78
2022-12-08T11:33:03.478Z,100826.84
2022-12-08T11:35:37.100Z,100818.13
2022-12-08T11:38:21.543Z,100821.66
2022-12-08T11:40:54.146Z,100813.72
2022-12-08T11:43:25.680Z,100817.44
2022-12-08T11:45:59.854Z,100809.91
2022-12-08T11:48:35.539Z,100806.47
2022-12-08T11:51:13.778Z,100809.41
2022-12-08T11:54:06.949Z,100805.19
2022-12-08T11:56:38.275Z,100795.94
2022-12-08T11:59:29.575Z,100794.91
2022-12-08T12:02:04.585Z,100806.06
2022-12-08T12:04:46.109Z,100801.03
2022-12-08T12:08:01.029Z,100796.97
2022-12-08T12:10:48.483Z,100797.66
2022-12-08T12:13:15.498Z,100792.06
2022-12-08T12:16:00.788Z,100796.41
2022-12-08T12:18:46.505Z,100805.28
2022-12-08T12:21:29.241Z,100789.75
2022-12-08T12:24:00.941Z,100788.03
2022-12-08T12:26:31.066Z,100786.78
2022-12-08T12:28:59.892Z,100782.91
2022-12-08T12:31:36.798Z,100775.78
2022-12-08T12:34:27.455Z,100767.09
2022-12-08T12:37:05.546Z,100768.66
2022-12-08T12:39:56.104Z,100767.28
2022-12-08T12:42:49.219Z,100767.34
2022-12-08T12:45:16.320Z,100759.91
2022-12-08T12:48:06.484Z,100752.56
2022-12-08T12:50:33.840Z,100759.13
2022-12-08T12:53:12.358Z,100752.28
2022-12-08T12:56:02.373Z,100747.66
2022-12-08T12:58:32.079Z,100743.31
2022-12-08T13:01:11.515Z,100752.06
2022-12-08T13:03:44.021Z,100744.75
2022-12-08T13:06:14.760Z,100740.38
2022-12-08T13:08:52.278Z,100745.63
2022-12-08T13:11:20.064Z,100754.94
2022-12-08T13:13:58.680Z,100748.78
2022-12-08T13:16:27.992Z,100749.63
2022-12-08T13:19:02.355Z,100745.47
2022-12-08T13:21:35.924Z,100745.88
2022-12-08T13:24:17.755Z,100748.44
2022-12-08T13:26:47.364Z,100739.56
2022-12-08T13:29:17.318Z,100739.34
2022-12-08T13:31:51.073Z,100727.81
2022-12-08T13:34:21.376Z,100731.13
2022-12-08T13:37:01.901Z,100741.22
2022-12-08T13:40:01.659Z,100737.59
2022-12-08T13:42:47.365Z,100736.91
2022-12-08T13:45:43.563Z,100736.19
2022-12-08T13:49:09.533Z,100742.06
2022-12-08T13:57:32.895Z,100728.59
2022-12-08T14:00:04.397Z,100732.19
2022-12-08T14:02:48.163Z,100733.41
2022-12-08T14:05:34.583Z,100727.59
2022-12-08T14:08:36.363Z,100739.28
2022-12-08T14:11:08.136Z,100748.94
2022-12-08T14:13:35.322Z,100756.84
2022-12-08T14:16:02.589Z,100755.25
2022-12-08T14:18:31.484Z,100758.59
2022-12-08T14:21:22.245Z,100759.56
2022-12-08T14:23:49.431Z,100757.25
2022-12-08T14:26:17.878Z,100750.09
2022-12-08T14:28:45.503Z,100747.97
2022-12-08T14:31:14.375Z,100741.91
2022-12-08T14:33:42.475Z,100751.09
2022-12-08T14:36:10.849Z,100742.56
2022-12-08T14:38:38.187Z,100760.72
2022-12-08T14:41:08.627Z,100756.81
2022-12-08T14:43:36.146Z,100765.34
2022-12-08T14:46:20.682Z,100765.31
2022-12-08T14:48:47.918Z,100764.81
2022-12-08T14:51:14.976Z,100760.22
2022-12-08T14:53:52.221Z,100757.03
2022-12-08T14:56:19.768Z,100755.88
2022-12-08T14:58:49.006Z,100751.97
2022-12-08T15:01:23.321Z,100761.34
2022-12-08T15:03:51.649Z,100759.78
2022-12-08T15:06:22.226Z,100744.28
2022-12-08T15:09:28.913Z,100754.09
2022-12-08T15:12:05.281Z,100751.63
2022-12-08T15:14:37.881Z,100754.44
2022-12-08T15:17:40.101Z,100756.22
2022-12-08T15:20:30.024Z,100757.78
2022-12-08T15:23:00.479Z,100766.41
2022-12-08T15:25:27.590Z,100763.56
2022-12-08T15:27:56.383Z,100759.78
2022-12-08T15:30:26.337Z,100758.16
2022-12-08T15:32:54.202Z,100761.44
2022-12-08T15:35:21.524Z,100765.56
2022-12-08T15:37:48.622Z,100767.47
2022-12-08T15:40:21.620Z,100763.22
2022-12-08T15:42:49.377Z,100758.59
2022-12-08T15:45:17.244Z,100763.25
2022-12-08T15:47:45.409Z,100767.06
2022-12-08T15:50:20.828Z,100755.47
2022-12-08T15:52:48.882Z,100761.00
2022-12-08T15:55:18.308Z,100767.41
2022-12-08T16:00:54.156Z,100775.16
2022-12-08T16:04:13.866Z,100771.78
2022-12-08T16:09:16.783Z,100770.47
2022-12-08T16:12:08.485Z,100777.53
2022-12-08T16:17:25.631Z,100784.50
2022-12-08T16:19:53.313Z,100784.69
2022-12-08T16:25:21.352Z,100771.94
2022-12-08T16:28:08.195Z,100769.56
2022-12-08T16:30:39.927Z,100763.50
2022-12-08T16:33:07.228Z,100772.25
2022-12-08T16:35:34.420Z,100765.13
2022-12-08T16:38:01.617Z,100772.50
2022-12-08T16:40:28.992Z,100769.97
2022-12-08T16:42:56.108Z,100783.84
2022-12-08T16:45:26.056Z,100768.22
2022-12-08T16:47:57.459Z,100772.19
2022-12-08T16:50:26.594Z,100768.56
2022-12-08T16:53:05.757Z,100765.09
2022-12-08T16:55:33.908Z,100769.31
2022-12-08T16:58:02.694Z,100768.19
2022-12-08T17:00:31.571Z,100783.59
2022-12-08T17:02:58.947Z,100771.88
2022-12-08T17:05:26.646Z,100782.84
2022-12-08T17:07:54.411Z,100781.94
2022-12-08T17:10:25.080Z,100784.44
2022-12-08T17:12:52.310Z,100784.50
2022-12-08T17:15:21.756Z,100783.25
2022-12-08T17:17:49.176Z,100777.06
2022-12-08T17:20:19.405Z,100767.28
2022-12-08T17:22:47.367Z,100759.25
2022-12-08T17:25:15.021Z,100771.69
2022-12-08T17:27:42.674Z,100768.13
2022-12-08T17:30:11.790Z,100764.78
2022-12-08T17:32:39.063Z,100763.03
2022-12-08T17:35:07.301Z,100755.56
2022-12-08T17:37:34.724Z,100761.16
2022-12-08T17:40:01.901Z,100755.06
2022-12-08T17:42:29.070Z,100759.25
2022-12-08T17:44:56.164Z,100769.78
2022-12-08T17:47:23.305Z,100772.47
2022-12-08T17:49:50.585Z,100772.47
2022-12-08T17:52:17.767Z,100775.25
2022-12-08T17:54:44.861Z,100775.25
2022-12-08T17:57:12.064Z,100767.38
2022-12-08T17:59:39.145Z,100759.25
2022-12-08T18:02:06.765Z,100762.53
2022-12-08T18:04:33.867Z,100757.50
2022-12-08T18:07:01.384Z,100748.00
2022-12-08T18:09:30.714Z,100757.84
2022-12-08T18:11:58.054Z,100764.59
2022-12-08T18:14:25.758Z,100755.84
2022-12-08T18:16:52.937Z,100765.56
2022-12-08T18:19:20.080Z,100763.22
2022-12-08T18:21:47.294Z,100758.09
2022-12-08T18:24:18.809Z,100753.69
2022-12-08T18:26:46.987Z,100756.97
2022-12-08T18:29:14.165Z,100768.28
2022-12-08T18:31:41.268Z,100773.31
2022-12-08T18:34:08.347Z,100788.44
2022-12-08T18:36:35.474Z,100778.78
2022-12-08T18:39:08.785Z,100781.50
2022-12-08T18:41:37.793Z,100768.22
2022-12-08T18:44:04.986Z,100779.72
2022-12-08T18:46:32.149Z,100774.38
2022-12-08T18:48:59.414Z,100784.13
2022-12-08T18:51:26.802Z,100781.44
2022-12-08T18:53:54.012Z,100774.44
2022-12-08T18:56:31.013Z,100784.88
2022-12-08T18:59:03.931Z,100766.41
2022-12-08T19:01:36.832Z,100776.94
2022-12-08T19:06:54.503Z,100781.69
2022-12-08T19:09:22.325Z,100779.97
2022-12-08T19:11:49.572Z,100764.47
2022-12-08T19:14:16.700Z,100780.97
2022-12-08T19:16:43.829Z,100775.69
2022-12-08T19:19:10.907Z,100759.84
2022-12-08T19:21:44.507Z,100770.44
2022-12-08T19:24:13.136Z,100758.09
2022-12-08T19:26:40.520Z,100764.13
2022-12-08T19:29:08.030Z,100760.00
2022-12-08T19:31:35.477Z,100757.47
2022-12-08T19:34:03.240Z,100766.16
2022-12-08T19:36:35.295Z,100743.44
2022-12-08T19:39:22.238Z,100750.31
2022-12-08T19:42:09.269Z,100771.53
2022-12-08T19:44:54.332Z,100759.38
2022-12-08T19:47:24.770Z,100759.19
2022-12-08T19:49:54.966Z,100766.28
2022-12-08T19:52:22.295Z,100775.88
2022-12-08T19:54:49.415Z,100770.84
2022-12-08T19:57:16.609Z,100762.00
2022-12-08T19:59:43.728Z,100756.09
2022-12-08T20:02:11.305Z,100756.75
2022-12-08T20:04:38.511Z,100748.19
2022-12-08T20:07:05.659Z,100758.69
2022-12-08T20:09:32.820Z,100749.59
2022-12-08T20:11:59.944Z,100752.44
2022-12-08T20:14:27.045Z,100748.69
2022-12-08T20:16:54.232Z,100739.97
2022-12-08T20:19:21.448Z,100751.06
2022-12-08T20:21:48.849Z,100752.56
2022-12-08T20:24:17.163Z,100747.44
2022-12-08T20:26:44.365Z,100751.97
2022-12-08T20:29:12.017Z,100763.88
2022-12-08T20:31:39.245Z,100763.69
2022-12-08T20:34:06.410Z,100761.38
2022-12-08T20:36:33.515Z,100755.84
2022-12-08T20:39:00.686Z,100752.25
2022-12-08T20:41:27.778Z,100742.63
2022-12-08T20:43:55.016Z,100740.00
2022-12-08T20:46:22.280Z,100740.94
2022-12-08T20:48:49.735Z,100744.34
2022-12-08T20:51:18.613Z,100737.50
2022-12-08T20:53:46.821Z,100736.59
2022-12-08T20:56:19.177Z,100742.91
2022-12-08T20:58:46.995Z,100738.44
2022-12-08T21:01:16.713Z,100744.53
2022-12-08T21:03:45.292Z,100743.97
2022-12-08T21:06:13.435Z,100742.25
2022-12-08T21:08:41.847Z,100743.03
2022-12-08T21:11:10.301Z,100751.59
2022-12-08T21:13:38.533Z,100763.13
2022-12-08T21:16:09.154Z,100758.88
2022-12-08T21:18:39.600Z,100759.00
2022-12-08T21:21:10.349Z,100757.31
2022-12-08T21:23:37.566Z,100756.31
2022-12-08T21:26:13.736Z,100756.31
2022-12-08T21:28:41.619Z,100761.38
2022-12-08T21:31:14.395Z,100747.50
2022-12-08T21:33:41.805Z,100738.75
2022-12-08T21:36:12.755Z,100746.34
2022-12-08T21:38:40.839Z,100729.84
2022-12-08T21:41:11.006Z,100728.31
2022-12-08T21:43:38.419Z,100726.47
2022-12-08T21:46:05.707Z,100731.75
2022-12-08T21:48:33.462Z,100722.13
2022-12-08T21:51:05.352Z,100718.06
2022-12-08T21:53:32.701Z,100724.38
2022-12-08T21:55:59.827Z,100717.16
2022-12-08T21:58:27.139Z,100723.53
2022-12-08T22:00:54.320Z,100723.59
2022-12-08T22:03:21.848Z,100713.88
2022-12-08T22:05:49.103Z,100707.69
2022-12-08T22:08:16.418Z,100704.50
2022-12-08T22:10:48.035Z,100710.53
2022-12-08T22:13:15.182Z,100713.03
2022-12-08T22:15:42.319Z,100712.31
2022-12-08T22:18:11.292Z,100710.31
2022-12-08T22:20:43.819Z,100711.50
2022-12-08T22:23:11.882Z,100717.81
2022-12-08T22:25:40.243Z,100721.81
2022-12-08T22:28:07.361Z,100727.09
2022-12-08T22:30:39.044Z,100736.13
2022-12-08T22:33:06.672Z,100727.59
2022-12-08T22:35:33.784Z,100737.97
2022-12-08T22:38:01.057Z,100737.94
2022-12-08T22:40:28.322Z,100737.97
2022-12-08T22:42:55.521Z,100741.53
2022-12-08T22:45:22.823Z,100748.38
2022-12-08T22:47:50.204Z,100749.88
2022-12-08T22:50:17.316Z,100749.94
2022-12-08T22:52:44.414Z,100748.19
2022-12-08T22:55:11.480Z,100743.28
2022-12-08T22:57:38.784Z,100740.25
2022-12-08T23:00:09.904Z,100733.25
2022-12-08T23:02:38.256Z,100723.41
2022-12-08T23:05:05.972Z,100724.13
2022-12-08T23:07:33.211Z,100714.59
2022-12-08T23:10:00.556Z,100707.72
2022-12-08T23:12:27.727Z,100714.53
2022-12-08T23:14:55.031Z,100720.06
2022-12-08T23:17:22.290Z,100719.88
2022-12-08T23:19:49.439Z,100722.69
2022-12-08T23:22:16.770Z,100721.88
2022-12-08T23:24:43.846Z,100716.50
2022-12-08T23:27:10.928Z,100719.25
2022-12-08T23:29:38.017Z,100716.75
2022-12-08T23:32:06.659Z,100717.53
2022-12-08T23:34:34.068Z,100701.13
2022-12-08T23:37:01.293Z,100709.00
2022-12-08T23:39:29.374Z,100695.09
2022-12-08T23:41:56.505Z,100693.56
2022-12-08T23:44:23.913Z,100693.50
2022-12-08T23:46:51.164Z,100700.59
2022-12-08T23:49:18.378Z,100692.59
2022-12-08T23:51:45.484Z,100695.22
2022-12-08T23:54:12.882Z,100691.66
2022-12-08T23:56:41.273Z,100678.41
2022-12-08T23:59:08.747Z,100679.25
